createdAt,value
2017-07-19T00:00:35.985Z,65.9
2017-07-19T00:01:37.552Z,65.6
2017-07-19T00:02:38.975Z,65.7
2017-07-19T00:03:40.365Z,65.4
2017-07-19T00:04:41.813Z,65.6
2017-07-19T00:05:43.218Z,65.8
2017-07-19T00:06:44.635Z,65.7
2017-07-19T00:07:46.121Z,65.5
2017-07-19T00:08:47.526Z,66.0
2017-07-19T00:09:49.007Z,66.0
2017-07-19T00:10:50.416Z,66.6
2017-07-19T00:11:51.905Z,66.4
2017-07-19T00:12:53.312Z,66.3
2017-07-19T00:13:54.733Z,66.7
2017-07-19T00:14:56.206Z,66.3
2017-07-19T00:15:57.608Z,66.4
2017-07-19T00:16:59.016Z,66.4
2017-07-19T00:18:00.528Z,66.7
2017-07-19T00:19:01.945Z,66.9
2017-07-19T00:20:03.347Z,66.3
2017-07-19T00:21:04.849Z,66.7
2017-07-19T00:22:06.257Z,66.7
2017-07-19T00:23:07.661Z,66.8
2017-07-19T00:24:09.168Z,66.8
2017-07-19T00:25:10.575Z,67.3
2017-07-19T00:26:11.978Z,66.8
2017-07-19T00:27:13.489Z,66.9
2017-07-19T00:28:14.907Z,67.3
2017-07-19T00:29:16.319Z,67.4
2017-07-19T00:30:17.830Z,67.3
2017-07-19T00:31:19.235Z,67.2
2017-07-19T00:32:20.641Z,67.2
2017-07-19T00:33:22.152Z,67.2
2017-07-19T00:34:23.552Z,67.0
2017-07-19T00:35:25.102Z,67.1
2017-07-19T00:36:26.502Z,67.1
2017-07-19T00:37:27.993Z,67.8
2017-07-19T00:38:29.403Z,67.6
2017-07-19T00:39:30.809Z,67.7
2017-07-19T00:40:32.317Z,67.2
2017-07-19T00:41:33.716Z,67.3
2017-07-19T00:42:35.148Z,67.9
2017-07-19T00:43:36.644Z,67.9
2017-07-19T00:44:38.052Z,68.3
2017-07-19T00:45:39.458Z,68.9
2017-07-19T00:46:40.959Z,69.5
2017-07-19T00:47:42.371Z,69.1
2017-07-19T00:48:43.805Z,68.7
2017-07-19T00:49:45.302Z,69.1
2017-07-19T00:50:46.703Z,68.3
2017-07-19T00:51:48.107Z,68.3
2017-07-19T00:52:49.598Z,68.4
2017-07-19T00:53:51.003Z,68.3
2017-07-19T00:54:52.487Z,68.6
2017-07-19T00:55:53.920Z,68.6
2017-07-19T00:56:55.364Z,68.9
2017-07-19T00:57:56.772Z,68.8
2017-07-19T00:58:58.178Z,68.7
2017-07-19T00:59:59.681Z,68.6
2017-07-19T01:01:01.090Z,68.8
2017-07-19T01:02:02.525Z,69.0
2017-07-19T01:03:04.000Z,68.8
2017-07-19T01:04:05.583Z,68.4
2017-07-19T01:05:07.049Z,69.1
2017-07-19T01:06:08.527Z,68.9
2017-07-19T01:07:10.010Z,69.3
2017-07-19T01:08:11.424Z,69.1
2017-07-19T01:09:12.874Z,69.5
2017-07-19T01:10:14.271Z,69.5
2017-07-19T01:11:15.740Z,69.6
2017-07-19T01:12:17.169Z,69.7
2017-07-19T01:13:18.575Z,68.9
2017-07-19T01:14:19.977Z,69.5
2017-07-19T01:15:21.489Z,69.0
2017-07-19T01:16:22.908Z,69.3
2017-07-19T01:17:24.374Z,69.1
2017-07-19T01:18:25.796Z,69.3
2017-07-19T01:19:27.201Z,69.8
2017-07-19T01:20:28.690Z,69.8
2017-07-19T01:21:30.098Z,69.8
2017-07-19T01:22:31.503Z,69.8
2017-07-19T01:23:33.014Z,69.3
2017-07-19T01:24:34.419Z,69.6
2017-07-19T01:25:35.898Z,69.6
2017-07-19T01:26:37.304Z,69.5
2017-07-19T01:27:38.771Z,69.9
2017-07-19T01:28:40.176Z,69.3
2017-07-19T01:29:41.656Z,69.6
2017-07-19T01:30:43.081Z,69.8
2017-07-19T01:31:44.545Z,70.2
2017-07-19T01:32:45.947Z,70.3
2017-07-19T01:33:47.355Z,70.2
2017-07-19T01:34:48.856Z,70.6
2017-07-19T01:35:50.261Z,70.2
2017-07-19T01:36:51.671Z,70.4
2017-07-19T01:37:53.175Z,70.3
2017-07-19T01:38:54.578Z,70.0
2017-07-19T01:39:55.994Z,70.9
2017-07-19T01:40:57.497Z,70.9
2017-07-19T01:41:58.901Z,70.8
2017-07-19T01:43:00.306Z,71.0
2017-07-19T01:44:01.838Z,70.5
2017-07-19T01:45:03.251Z,71.0
2017-07-19T01:46:04.648Z,70.9
2017-07-19T01:47:06.139Z,71.0
2017-07-19T01:48:07.545Z,70.6
2017-07-19T01:49:08.949Z,71.0
2017-07-19T01:50:10.456Z,71.4
2017-07-19T01:51:11.879Z,71.1
2017-07-19T01:52:13.340Z,71.7
2017-07-19T01:53:14.741Z,71.5
2017-07-19T01:54:16.221Z,71.2
2017-07-19T01:55:17.625Z,71.5
2017-07-19T01:56:19.101Z,71.2
2017-07-19T01:57:20.508Z,72.2
2017-07-19T01:58:21.982Z,72.1
2017-07-19T01:59:23.379Z,72.1
2017-07-19T02:00:24.862Z,72.1
2017-07-19T02:01:26.279Z,72.4
2017-07-19T02:02:27.756Z,72.3
2017-07-19T02:03:29.161Z,71.8
2017-07-19T02:04:30.590Z,71.6
2017-07-19T02:05:31.992Z,72.1
2017-07-19T02:06:33.393Z,72.0
2017-07-19T02:07:34.842Z,72.5
2017-07-19T02:08:36.245Z,72.4
2017-07-19T02:09:37.754Z,72.6
2017-07-19T02:10:39.136Z,72.7
2017-07-19T02:11:40.631Z,72.6
2017-07-19T02:12:42.036Z,72.7
2017-07-19T02:13:43.484Z,72.5
2017-07-19T02:14:44.884Z,72.7
2017-07-19T02:15:46.289Z,72.7
2017-07-19T02:16:47.804Z,72.1
2017-07-19T02:17:49.232Z,72.8
2017-07-19T02:18:50.636Z,72.6
2017-07-19T02:19:52.126Z,73.3
2017-07-19T02:20:53.542Z,73.0
2017-07-19T02:21:54.947Z,73.1
2017-07-19T02:22:56.460Z,73.3
2017-07-19T02:23:57.867Z,73.4
2017-07-19T02:24:59.268Z,73.4
2017-07-19T02:26:00.768Z,73.7
2017-07-19T02:27:02.174Z,74.1
2017-07-19T02:28:03.648Z,74.2
2017-07-19T02:29:05.068Z,73.9
2017-07-19T02:30:06.496Z,74.0
2017-07-19T02:31:07.969Z,74.0
2017-07-19T02:32:09.408Z,74.1
2017-07-19T02:33:10.821Z,73.9
2017-07-19T02:34:12.294Z,74.2
2017-07-19T02:35:13.709Z,74.4
2017-07-19T02:36:15.169Z,74.4
2017-07-19T02:37:16.581Z,74.7
2017-07-19T02:38:18.052Z,74.7
2017-07-19T02:39:19.481Z,74.7
2017-07-19T02:40:20.891Z,74.4
2017-07-19T02:41:22.374Z,74.7
2017-07-19T02:42:23.772Z,75.3
2017-07-19T02:43:25.177Z,74.9
2017-07-19T02:44:26.711Z,75.0
2017-07-19T02:45:28.116Z,75.5
2017-07-19T02:46:29.592Z,75.1
2017-07-19T02:47:31.000Z,75.4
2017-07-19T02:48:32.454Z,75.3
2017-07-19T02:49:33.857Z,75.5
2017-07-19T02:50:35.269Z,75.4
2017-07-19T02:51:36.782Z,75.6
2017-07-19T02:52:38.188Z,75.8
2017-07-19T02:53:39.611Z,75.8
2017-07-19T02:54:41.100Z,75.6
2017-07-19T02:55:42.500Z,75.3
2017-07-19T02:56:43.986Z,75.5
2017-07-19T02:57:45.388Z,75.6
2017-07-19T02:58:46.864Z,75.5
2017-07-19T02:59:48.266Z,75.5
2017-07-19T03:00:49.756Z,75.8
2017-07-19T03:01:51.164Z,76.4
2017-07-19T03:02:52.623Z,76.3
2017-07-19T03:03:54.020Z,76.0
2017-07-19T03:04:55.420Z,75.8
2017-07-19T03:05:56.840Z,76.0
2017-07-19T03:06:58.239Z,76.2
2017-07-19T03:07:59.656Z,76.9
2017-07-19T03:09:01.169Z,76.8
2017-07-19T03:10:02.561Z,76.3
2017-07-19T03:11:03.959Z,76.4
2017-07-19T03:12:05.480Z,76.8
2017-07-19T03:13:06.902Z,76.5
2017-07-19T03:14:08.303Z,76.9
2017-07-19T03:15:09.802Z,76.9
2017-07-19T03:16:11.209Z,77.1
2017-07-19T03:17:12.681Z,77.2
2017-07-19T03:18:14.080Z,76.9
2017-07-19T03:19:15.482Z,77.1
2017-07-19T03:20:16.926Z,77.5
2017-07-19T03:21:18.339Z,77.2
2017-07-19T03:22:19.745Z,77.1
2017-07-19T03:23:21.225Z,77.4
2017-07-19T03:24:22.631Z,77.5
2017-07-19T03:25:24.032Z,77.3
2017-07-19T03:26:25.548Z,77.4
2017-07-19T03:27:26.952Z,77.9
2017-07-19T03:28:28.356Z,78.2
2017-07-19T03:29:29.950Z,78.1
2017-07-19T03:30:31.363Z,78.1
2017-07-19T03:31:32.763Z,77.8
2017-07-19T03:32:34.213Z,78.5
2017-07-19T03:33:35.621Z,78.4
2017-07-19T03:34:37.019Z,78.2
2017-07-19T03:35:38.526Z,78.8
2017-07-19T03:36:39.911Z,78.8
2017-07-19T03:37:41.384Z,78.7
2017-07-19T03:38:42.789Z,78.7
2017-07-19T03:39:44.191Z,78.8
2017-07-19T03:40:46.679Z,78.2
2017-07-19T03:41:48.101Z,78.6
2017-07-19T03:42:49.528Z,78.6
2017-07-19T03:43:50.948Z,78.3
2017-07-19T03:44:52.353Z,78.1
2017-07-19T03:45:53.759Z,78.5
2017-07-19T03:46:55.268Z,78.8
2017-07-19T03:47:56.693Z,78.5
2017-07-19T03:48:58.111Z,78.6
2017-07-19T03:49:59.603Z,78.5
2017-07-19T03:51:01.008Z,79.2
2017-07-19T03:52:02.445Z,78.5
2017-07-19T03:53:03.910Z,78.7
2017-07-19T03:54:05.327Z,78.7
2017-07-19T03:55:06.767Z,78.5
2017-07-19T03:56:08.237Z,78.8
2017-07-19T03:57:09.647Z,78.8
2017-07-19T03:58:11.061Z,78.6
2017-07-19T03:59:12.552Z,78.5
2017-07-19T04:00:13.962Z,78.3
2017-07-19T04:01:15.375Z,78.5
2017-07-19T04:02:16.903Z,78.2
2017-07-19T04:03:18.318Z,78.6
2017-07-19T04:04:19.740Z,78.8
2017-07-19T04:05:21.214Z,78.3
2017-07-19T04:06:22.622Z,78.5
2017-07-19T04:07:24.077Z,78.5
2017-07-19T04:08:25.496Z,78.8
2017-07-19T04:09:26.983Z,78.5
2017-07-19T04:10:28.387Z,78.7
2017-07-19T04:11:29.867Z,78.3
2017-07-19T04:12:31.270Z,78.4
2017-07-19T04:13:32.714Z,78.3
2017-07-19T04:14:34.126Z,78.8
2017-07-19T04:15:35.532Z,78.9
2017-07-19T04:16:37.062Z,79.1
2017-07-19T04:17:38.467Z,78.6
2017-07-19T04:18:39.894Z,78.6
2017-07-19T04:19:41.361Z,78.9
2017-07-19T04:20:42.772Z,79.0
2017-07-19T04:21:44.176Z,79.0
2017-07-19T04:22:45.678Z,78.5
2017-07-19T04:23:47.126Z,78.8
2017-07-19T04:24:48.565Z,78.3
2017-07-19T04:25:49.985Z,78.9
2017-07-19T04:26:51.402Z,78.8
2017-07-19T04:27:52.883Z,78.7
2017-07-19T04:28:54.296Z,78.9
2017-07-19T04:29:55.699Z,78.5
2017-07-19T04:30:57.232Z,79.0
2017-07-19T04:31:58.633Z,78.8
2017-07-19T04:33:00.061Z,79.0
2017-07-19T04:34:01.528Z,79.4
2017-07-19T04:35:02.935Z,79.4
2017-07-19T04:36:04.345Z,79.2
2017-07-19T04:37:05.837Z,79.6
2017-07-19T04:38:07.266Z,79.0
2017-07-19T04:39:08.727Z,79.6
2017-07-19T04:40:10.164Z,79.4
2017-07-19T04:41:11.608Z,79.3
2017-07-19T04:42:13.015Z,78.8
2017-07-19T04:43:14.481Z,79.2
2017-07-19T04:44:15.898Z,79.2
2017-07-19T04:45:17.366Z,78.5
2017-07-19T04:46:18.778Z,78.6
2017-07-19T04:47:20.253Z,78.8
2017-07-19T04:48:21.666Z,79.4
2017-07-19T04:49:25.630Z,79.9
2017-07-19T04:50:27.042Z,79.8
2017-07-19T04:51:28.451Z,79.7
2017-07-19T04:52:29.909Z,79.5
2017-07-19T04:53:31.317Z,79.2
2017-07-19T04:54:32.753Z,78.5
2017-07-19T04:55:34.224Z,79.2
2017-07-19T04:56:35.664Z,79.6
2017-07-19T04:57:37.108Z,79.4
2017-07-19T04:58:38.543Z,78.6
2017-07-19T04:59:39.989Z,79.1
2017-07-19T05:00:41.395Z,79.2
2017-07-19T05:01:42.804Z,78.7
2017-07-19T05:02:44.310Z,78.9
2017-07-19T05:03:45.775Z,79.0
2017-07-19T05:04:47.188Z,78.8
2017-07-19T05:05:48.634Z,78.7
2017-07-19T05:06:50.038Z,78.7
2017-07-19T05:07:51.445Z,78.9
2017-07-19T05:08:52.955Z,78.8
2017-07-19T05:09:54.675Z,79.1
2017-07-19T05:10:56.083Z,79.4
2017-07-19T05:11:57.598Z,78.5
2017-07-19T05:12:58.999Z,78.1
2017-07-19T05:14:00.461Z,78.2
2017-07-19T05:15:01.871Z,78.3
2017-07-19T05:16:03.340Z,78.2
2017-07-19T05:17:04.750Z,77.3
2017-07-19T05:18:06.226Z,77.5
2017-07-19T05:19:07.630Z,77.5
2017-07-19T05:20:09.105Z,78.2
2017-07-19T05:21:10.510Z,77.9
2017-07-19T05:22:12.002Z,77.5
2017-07-19T05:23:13.405Z,78.1
2017-07-19T05:24:14.868Z,77.6
2017-07-19T05:25:16.276Z,77.4
2017-07-19T05:26:17.770Z,77.2
2017-07-19T05:27:19.151Z,76.9
2017-07-19T05:28:20.634Z,76.9
2017-07-19T05:29:22.051Z,76.2
2017-07-19T05:30:23.507Z,76.4
2017-07-19T05:31:24.917Z,76.4
2017-07-19T05:32:26.385Z,76.4
2017-07-19T05:33:27.799Z,76.1
2017-07-19T05:34:29.267Z,76.4
2017-07-19T05:35:30.674Z,77.2
2017-07-19T05:36:32.081Z,75.4
2017-07-19T05:37:33.586Z,75.9
2017-07-19T05:38:34.997Z,75.7
2017-07-19T05:39:36.412Z,75.5
2017-07-19T05:40:37.910Z,76.3
2017-07-19T05:41:39.315Z,75.8
2017-07-19T05:42:40.739Z,75.2
2017-07-19T05:43:42.148Z,75.3
2017-07-19T05:44:43.669Z,75.6
2017-07-19T05:45:45.085Z,75.8
2017-07-19T05:46:46.554Z,76.3
2017-07-19T05:47:48.051Z,76.3
2017-07-19T05:48:49.460Z,77.1
2017-07-19T05:49:51.076Z,75.7
2017-07-19T05:50:52.485Z,75.7
2017-07-19T05:51:54.168Z,75.5
2017-07-19T05:52:55.576Z,75.8
2017-07-19T05:53:57.247Z,75.5
2017-07-19T05:54:58.661Z,75.6
2017-07-19T05:56:00.333Z,75.0
2017-07-19T05:57:01.739Z,75.4
2017-07-19T05:58:03.148Z,75.4
2017-07-19T05:59:04.858Z,75.7
2017-07-19T06:00:06.268Z,75.5
2017-07-19T06:01:07.680Z,75.5
2017-07-19T06:02:09.396Z,75.4
2017-07-19T06:03:10.823Z,74.5
2017-07-19T06:04:12.472Z,74.6
2017-07-19T06:05:13.879Z,73.9
2017-07-19T06:06:15.448Z,74.1
2017-07-19T06:07:16.867Z,74.0
2017-07-19T06:08:18.280Z,73.9
2017-07-19T06:09:19.703Z,73.4
2017-07-19T06:10:21.105Z,73.3
2017-07-19T06:11:22.517Z,72.6
2017-07-19T06:12:23.992Z,72.6
2017-07-19T06:13:25.405Z,72.6
2017-07-19T06:14:26.810Z,72.9
2017-07-19T06:15:28.319Z,72.9
2017-07-19T06:16:29.730Z,72.7
2017-07-19T06:17:31.137Z,72.6
2017-07-19T06:18:32.638Z,72.6
2017-07-19T06:19:34.043Z,72.0
2017-07-19T06:20:35.514Z,72.5
2017-07-19T06:21:36.922Z,71.9
2017-07-19T06:22:38.395Z,71.8
2017-07-19T06:23:39.805Z,72.1
2017-07-19T06:24:41.276Z,72.1
2017-07-19T06:25:42.682Z,72.3
2017-07-19T06:26:44.232Z,71.7
2017-07-19T06:27:45.639Z,71.4
2017-07-19T06:28:47.060Z,71.7
2017-07-19T06:29:48.594Z,72.0
2017-07-19T06:30:50.014Z,72.1
2017-07-19T06:31:51.415Z,70.7
2017-07-19T06:32:52.910Z,69.7
2017-07-19T06:33:54.315Z,70.5
2017-07-19T06:34:55.725Z,70.4
2017-07-19T06:35:57.226Z,70.4
2017-07-19T06:36:58.680Z,69.8
2017-07-19T06:38:00.084Z,69.5
2017-07-19T06:39:01.554Z,69.5
2017-07-19T06:40:02.966Z,69.7
2017-07-19T06:41:04.432Z,69.3
2017-07-19T06:42:05.842Z,68.7
2017-07-19T06:43:07.291Z,68.7
2017-07-19T06:44:09.770Z,68.8
2017-07-19T06:45:11.183Z,69.4
2017-07-19T06:46:12.593Z,69.8
2017-07-19T06:47:14.096Z,69.3
2017-07-19T06:48:15.502Z,68.6
2017-07-19T06:49:16.972Z,67.5
2017-07-19T06:50:18.383Z,67.3
2017-07-19T06:51:19.967Z,67.4
2017-07-19T06:52:21.388Z,67.6
2017-07-19T06:53:22.838Z,66.5
2017-07-19T06:54:24.245Z,67.1
2017-07-19T06:55:25.713Z,67.3
2017-07-19T06:56:27.125Z,67.4
2017-07-19T06:57:28.615Z,67.2
2017-07-19T06:58:30.026Z,67.4
2017-07-19T06:59:32.509Z,66.3
2017-07-19T07:00:33.911Z,65.8
2017-07-19T07:01:35.380Z,65.8
2017-07-19T07:02:36.792Z,65.6
2017-07-19T07:03:38.260Z,65.3
2017-07-19T07:04:39.673Z,65.2
2017-07-19T07:05:41.138Z,64.9
2017-07-19T07:06:42.552Z,65.9
2017-07-19T07:07:43.967Z,65.8
2017-07-19T07:08:45.375Z,64.2
2017-07-19T07:09:46.815Z,64.9
2017-07-19T07:10:48.226Z,64.0
2017-07-19T07:11:49.687Z,63.6
2017-07-19T07:12:51.092Z,62.4
2017-07-19T07:13:52.564Z,62.3
2017-07-19T07:14:53.971Z,61.7
2017-07-19T07:15:55.448Z,62.5
2017-07-19T07:16:56.884Z,62.2
2017-07-19T07:17:58.330Z,62.7
2017-07-19T07:18:59.738Z,62.1
2017-07-19T07:20:01.211Z,61.0
2017-07-19T07:21:02.614Z,61.8
2017-07-19T07:22:04.090Z,61.3
2017-07-19T07:23:05.504Z,60.9
2017-07-19T07:24:06.979Z,60.3
2017-07-19T07:25:08.386Z,61.0
2017-07-19T07:26:09.893Z,59.6
2017-07-19T07:27:11.322Z,59.4
2017-07-19T07:28:12.732Z,59.1
2017-07-19T07:29:14.169Z,59.4
2017-07-19T07:30:15.577Z,59.1
2017-07-19T07:31:16.992Z,58.8
2017-07-19T07:32:18.491Z,58.3
2017-07-19T07:33:19.901Z,58.3
2017-07-19T07:34:21.319Z,58.3
2017-07-19T07:35:22.812Z,57.8
2017-07-19T07:36:24.221Z,58.7
2017-07-19T07:37:25.629Z,57.2
2017-07-19T07:38:27.130Z,56.9
2017-07-19T07:39:28.542Z,57.7
2017-07-19T07:40:30.086Z,56.2
2017-07-19T07:41:31.501Z,56.7
2017-07-19T07:42:33.011Z,56.3
2017-07-19T07:43:34.431Z,56.8
2017-07-19T07:44:35.888Z,56.4
2017-07-19T07:45:37.303Z,56.5
2017-07-19T07:46:38.753Z,56.9
2017-07-19T07:47:40.164Z,55.5
2017-07-19T07:48:41.574Z,55.5
2017-07-19T07:49:43.075Z,55.7
2017-07-19T07:50:44.486Z,55.3
2017-07-19T07:51:45.891Z,55.2
2017-07-19T07:52:47.313Z,54.4
2017-07-19T07:53:48.723Z,53.8
2017-07-19T07:54:50.165Z,54.1
2017-07-19T07:55:51.613Z,54.5
2017-07-19T07:56:53.026Z,54.0
2017-07-19T07:57:54.456Z,52.0
2017-07-19T07:58:55.934Z,51.6
2017-07-19T07:59:57.344Z,51.4
2017-07-19T08:00:58.816Z,51.8
2017-07-19T08:02:00.231Z,51.4
2017-07-19T08:03:01.693Z,50.8
2017-07-19T08:04:03.107Z,51.2
2017-07-19T08:05:04.580Z,52.2
2017-07-19T08:06:05.992Z,49.9
2017-07-19T08:07:07.459Z,49.9
2017-07-19T08:08:08.865Z,49.4
2017-07-19T08:09:10.336Z,50.3
2017-07-19T08:10:11.751Z,50.4
2017-07-19T08:11:13.218Z,50.0
2017-07-19T08:12:14.636Z,49.4
2017-07-19T08:13:16.099Z,50.2
2017-07-19T08:14:17.516Z,50.3
2017-07-19T08:15:18.986Z,48.3
2017-07-19T08:16:20.414Z,49.3
2017-07-19T08:17:21.854Z,48.7
2017-07-19T08:18:23.275Z,48.8
2017-07-19T08:19:24.687Z,49.1
2017-07-19T08:20:26.180Z,49.3
2017-07-19T08:21:27.593Z,47.7
2017-07-19T08:22:29.002Z,48.1
2017-07-19T08:23:30.501Z,48.2
2017-07-19T08:24:31.913Z,47.0
2017-07-19T08:25:33.382Z,47.2
2017-07-19T08:26:34.796Z,46.6
2017-07-19T08:27:36.294Z,47.0
2017-07-19T08:28:37.720Z,48.3
2017-07-19T08:29:39.131Z,48.3
2017-07-19T08:30:40.583Z,48.9
2017-07-19T08:31:42.024Z,48.2
2017-07-19T08:32:43.441Z,49.1
2017-07-19T08:33:44.861Z,50.7
2017-07-19T08:34:46.270Z,51.1
2017-07-19T08:35:47.683Z,53.3
2017-07-19T08:36:49.105Z,51.5
2017-07-19T08:37:50.526Z,50.7
2017-07-19T08:38:51.949Z,52.5
2017-07-19T08:39:53.376Z,50.3
2017-07-19T08:40:54.786Z,51.9
2017-07-19T08:41:56.207Z,51.5
2017-07-19T08:42:57.621Z,51.6
2017-07-19T08:43:59.048Z,50.4
2017-07-19T08:45:00.475Z,51.9
2017-07-19T08:46:01.892Z,53.8
2017-07-19T08:47:03.311Z,54.3
2017-07-19T08:48:04.728Z,53.7
2017-07-19T08:49:06.139Z,52.7
2017-07-19T08:50:07.571Z,52.1
2017-07-19T08:51:08.991Z,52.4
2017-07-19T08:52:10.405Z,52.5
2017-07-19T08:53:11.820Z,53.1
2017-07-19T08:54:13.239Z,53.1
2017-07-19T08:55:14.652Z,53.0
2017-07-19T08:56:16.082Z,50.4
2017-07-19T08:57:17.497Z,49.9
2017-07-19T08:58:18.959Z,50.6
2017-07-19T08:59:20.387Z,49.9
2017-07-19T09:00:21.808Z,49.4
2017-07-19T09:01:23.230Z,50.3
2017-07-19T09:02:24.723Z,48.9
2017-07-19T09:03:26.135Z,49.0
2017-07-19T09:04:27.809Z,49.2
2017-07-19T09:05:29.226Z,50.0
2017-07-19T09:06:30.896Z,49.2
2017-07-19T09:07:32.314Z,48.8
2017-07-19T09:08:33.977Z,48.9
2017-07-19T09:09:35.398Z,49.3
2017-07-19T09:10:37.063Z,49.0
2017-07-19T09:11:38.478Z,48.3
2017-07-19T09:12:40.151Z,49.1
2017-07-19T09:13:41.573Z,49.1
2017-07-19T09:14:42.981Z,48.2
2017-07-19T09:15:44.683Z,47.6
2017-07-19T09:16:46.095Z,47.4
2017-07-19T09:17:47.494Z,47.7
2017-07-19T09:18:48.995Z,48.4
2017-07-19T09:19:50.413Z,49.1
2017-07-19T09:20:51.828Z,48.9
2017-07-19T09:21:53.316Z,49.0
2017-07-19T09:22:54.728Z,48.0
2017-07-19T09:23:56.144Z,48.1
2017-07-19T09:24:57.637Z,48.6
2017-07-19T09:25:59.050Z,47.0
2017-07-19T09:27:00.468Z,47.3
2017-07-19T09:28:02.164Z,47.2
2017-07-19T09:29:03.586Z,46.9
2017-07-19T09:30:04.999Z,48.0
2017-07-19T09:31:06.687Z,50.2
2017-07-19T09:32:08.102Z,46.7
2017-07-19T09:33:09.520Z,47.1
2017-07-19T09:34:11.008Z,47.8
2017-07-19T09:35:12.425Z,48.0
2017-07-19T09:36:15.834Z,45.8
2017-07-19T09:37:17.296Z,45.3
2017-07-19T09:38:18.818Z,46.0
2017-07-19T09:39:20.231Z,46.7
2017-07-19T09:40:21.657Z,44.9
2017-07-19T09:41:23.344Z,46.2
2017-07-19T09:42:24.762Z,44.0
2017-07-19T09:43:26.190Z,45.0
2017-07-19T09:44:27.871Z,45.3
2017-07-19T09:45:29.284Z,44.8
2017-07-19T09:46:30.976Z,45.0
2017-07-19T09:47:32.398Z,45.0
2017-07-19T09:48:34.042Z,43.2
2017-07-19T09:49:35.459Z,42.9
2017-07-19T09:50:36.880Z,40.5
2017-07-19T09:51:38.568Z,41.2
2017-07-19T09:52:39.986Z,40.2
2017-07-19T09:53:41.400Z,41.4
2017-07-19T09:54:47.808Z,41.2
2017-07-19T09:55:49.229Z,41.5
2017-07-19T09:56:50.887Z,42.0
2017-07-19T09:57:52.309Z,39.6
2017-07-19T09:58:53.974Z,38.9
2017-07-19T09:59:55.391Z,37.2
2017-07-19T10:00:56.846Z,37.2
2017-07-19T10:01:58.266Z,37.0
2017-07-19T10:02:59.683Z,37.7
2017-07-19T10:04:01.178Z,38.3
2017-07-19T10:05:02.599Z,38.5
2017-07-19T10:06:04.056Z,36.9
2017-07-19T10:07:05.702Z,36.5
2017-07-19T10:08:07.118Z,37.1
2017-07-19T10:09:08.535Z,36.3
2017-07-19T10:10:10.023Z,36.1
2017-07-19T10:11:11.445Z,35.7
2017-07-19T10:12:12.865Z,35.7
2017-07-19T10:13:14.353Z,35.9
2017-07-19T10:14:15.775Z,36.3
2017-07-19T10:15:17.188Z,35.2
2017-07-19T10:16:18.868Z,35.3
2017-07-19T10:17:20.289Z,36.2
2017-07-19T10:18:21.706Z,35.7
2017-07-19T10:19:23.191Z,36.0
2017-07-19T10:20:25.204Z,33.7
2017-07-19T10:21:26.627Z,35.4
2017-07-19T10:22:29.148Z,34.5
2017-07-19T10:23:30.530Z,34.8
2017-07-19T10:24:31.964Z,34.9
2017-07-19T10:25:33.924Z,33.9
2017-07-19T10:26:35.334Z,35.5
2017-07-19T10:27:36.935Z,34.8
2017-07-19T10:28:38.387Z,34.3
2017-07-19T10:29:40.059Z,35.1
2017-07-19T10:30:41.527Z,35.6
2017-07-19T10:31:43.180Z,34.3
2017-07-19T10:32:44.606Z,33.1
2017-07-19T10:33:46.200Z,33.5
2017-07-19T10:34:47.620Z,33.1
2017-07-19T10:35:49.083Z,32.6
2017-07-19T10:36:50.517Z,32.6
2017-07-19T10:37:52.155Z,33.9
2017-07-19T10:38:53.572Z,34.0
2017-07-19T10:39:55.105Z,32.5
2017-07-19T10:40:56.504Z,33.4
2017-07-19T10:41:57.924Z,32.1
2017-07-19T10:42:59.569Z,32.2
2017-07-19T10:44:00.988Z,33.1
2017-07-19T10:45:02.398Z,32.6
2017-07-19T10:46:03.873Z,33.5
2017-07-19T10:47:05.685Z,32.7
2017-07-19T10:48:07.163Z,34.3
2017-07-19T10:49:08.583Z,34.8
2017-07-19T10:50:10.044Z,33.4
2017-07-19T10:51:11.459Z,31.9
2017-07-19T10:52:12.926Z,33.2
2017-07-19T10:53:14.346Z,32.7
2017-07-19T10:54:15.820Z,30.4
2017-07-19T10:55:17.314Z,30.6
2017-07-19T10:56:18.895Z,30.5
2017-07-19T10:57:20.314Z,32.1
2017-07-19T10:58:21.774Z,32.4
2017-07-19T10:59:23.193Z,32.7
2017-07-19T11:00:24.660Z,32.7
2017-07-19T11:01:26.076Z,32.6
2017-07-19T11:02:27.987Z,33.5
2017-07-19T11:03:29.594Z,31.8
2017-07-19T11:04:31.009Z,32.6
2017-07-19T11:05:32.431Z,32.1
2017-07-19T11:06:33.952Z,33.9
2017-07-19T11:07:35.372Z,31.7
2017-07-19T11:08:37.004Z,32.8
2017-07-19T11:09:38.445Z,32.2
2017-07-19T11:10:39.878Z,32.0
2017-07-19T11:11:41.712Z,31.0
2017-07-19T11:12:43.175Z,31.9
2017-07-19T11:13:45.391Z,30.5
2017-07-19T11:14:46.994Z,30.9
2017-07-19T11:15:48.417Z,30.7
2017-07-19T11:16:49.963Z,30.6
2017-07-19T11:17:51.391Z,30.0
2017-07-19T11:18:52.841Z,30.6
2017-07-19T11:19:54.267Z,29.5
2017-07-19T11:20:55.721Z,29.2
2017-07-19T11:21:57.150Z,29.2
2017-07-19T11:22:58.603Z,27.7
2017-07-19T11:24:00.043Z,25.7
2017-07-19T11:25:01.889Z,27.2
2017-07-19T11:26:03.320Z,25.5
2017-07-19T11:27:04.736Z,27.3
2017-07-19T11:28:06.213Z,27.6
2017-07-19T11:29:07.645Z,27.7
2017-07-19T11:30:09.064Z,27.0
2017-07-19T11:31:10.535Z,29.2
2017-07-19T11:32:11.962Z,30.3
2017-07-19T11:33:13.386Z,27.6
2017-07-19T11:34:14.858Z,28.1
2017-07-19T11:35:16.283Z,29.0
2017-07-19T11:36:17.704Z,26.9
2017-07-19T11:37:19.179Z,27.2
2017-07-19T11:38:20.629Z,29.1
2017-07-19T11:39:22.061Z,26.5
2017-07-19T11:40:23.484Z,25.9
2017-07-19T11:41:24.909Z,25.2
2017-07-19T11:42:26.383Z,25.3
2017-07-19T11:43:27.854Z,26.6
2017-07-19T11:44:29.249Z,26.5
2017-07-19T11:45:30.710Z,25.9
2017-07-19T11:46:32.134Z,25.9
2017-07-19T11:47:33.583Z,25.9
2017-07-19T11:48:35.005Z,24.3
2017-07-19T11:49:36.465Z,24.3
2017-07-19T11:50:37.888Z,26.1
2017-07-19T11:51:39.345Z,24.8
2017-07-19T11:52:40.770Z,23.0
2017-07-19T11:53:42.226Z,25.1
2017-07-19T11:54:43.647Z,23.9
2017-07-19T11:55:45.110Z,24.9
2017-07-19T11:56:46.539Z,23.2
2017-07-19T11:57:47.951Z,23.5
2017-07-19T11:58:49.430Z,23.8
2017-07-19T11:59:50.856Z,23.8
2017-07-19T12:00:52.276Z,23.5
2017-07-19T12:01:53.751Z,23.7
2017-07-19T12:02:55.172Z,24.1
2017-07-19T12:03:56.596Z,24.4
2017-07-19T12:04:58.072Z,22.5
2017-07-19T12:05:59.499Z,22.1
2017-07-19T12:07:00.978Z,22.5
2017-07-19T12:08:02.995Z,22.9
2017-07-19T12:09:04.414Z,22.0
2017-07-19T12:10:05.836Z,21.7
2017-07-19T12:11:07.333Z,20.5
2017-07-19T12:12:08.755Z,21.4
2017-07-19T12:13:10.177Z,19.7
2017-07-19T12:14:11.660Z,20.5
2017-07-19T12:15:13.127Z,20.1
2017-07-19T12:16:14.545Z,18.5
2017-07-19T12:17:16.182Z,18.2
2017-07-19T12:18:17.605Z,19.6
2017-07-19T12:19:19.027Z,19.0
2017-07-19T12:20:20.506Z,18.7
2017-07-19T12:21:22.042Z,18.3
2017-07-19T12:22:23.462Z,19.0
2017-07-19T12:23:25.048Z,19.2
2017-07-19T12:24:26.469Z,18.8
2017-07-19T12:25:28.266Z,17.9
2017-07-19T12:26:29.760Z,17.9
2017-07-19T12:27:31.186Z,17.6
2017-07-19T12:28:32.601Z,17.1
2017-07-19T12:29:34.024Z,18.2
2017-07-19T12:30:35.440Z,17.7
2017-07-19T12:31:36.962Z,17.9
2017-07-19T12:32:38.392Z,17.2
2017-07-19T12:33:39.804Z,18.2
2017-07-19T12:34:41.284Z,15.8
2017-07-19T12:35:42.718Z,16.8
2017-07-19T12:36:44.127Z,17.2
2017-07-19T12:37:45.628Z,17.3
2017-07-19T12:38:47.042Z,15.9
2017-07-19T12:39:48.482Z,17.4
2017-07-19T12:40:49.908Z,18.3
2017-07-19T12:41:51.362Z,17.0
2017-07-19T12:42:52.798Z,15.5
2017-07-19T12:43:54.245Z,16.0
2017-07-19T12:44:55.668Z,15.8
2017-07-19T12:45:57.122Z,17.1
2017-07-19T12:46:58.548Z,16.9
2017-07-19T12:47:59.985Z,16.3
2017-07-19T12:49:01.409Z,15.8
2017-07-19T12:50:02.825Z,16.8
2017-07-19T12:51:04.248Z,16.0
2017-07-19T12:52:05.815Z,16.4
2017-07-19T12:53:07.210Z,17.6
2017-07-19T12:54:08.653Z,17.3
2017-07-19T12:55:10.072Z,17.7
2017-07-19T12:56:11.532Z,18.4
2017-07-19T12:57:12.970Z,19.5
2017-07-19T12:58:14.377Z,19.9
2017-07-19T12:59:15.859Z,20.7
2017-07-19T13:00:17.276Z,20.2
2017-07-19T13:01:18.692Z,20.0
2017-07-19T13:02:20.174Z,18.8
2017-07-19T13:03:21.602Z,17.6
2017-07-19T13:04:23.026Z,16.3
2017-07-19T13:05:24.497Z,16.2
2017-07-19T13:06:25.914Z,16.3
2017-07-19T13:07:27.328Z,17.5
2017-07-19T13:08:28.822Z,18.1
2017-07-19T13:09:30.237Z,18.2
2017-07-19T13:10:31.671Z,18.3
2017-07-19T13:11:34.996Z,18.2
2017-07-19T13:12:36.421Z,17.7
2017-07-19T13:13:37.836Z,18.2
2017-07-19T13:14:39.306Z,18.4
2017-07-19T13:15:40.722Z,19.8
2017-07-19T13:16:42.140Z,20.5
2017-07-19T13:17:43.627Z,21.4
2017-07-19T13:18:45.043Z,22.8
2017-07-19T13:19:46.509Z,24.6
2017-07-19T13:20:47.918Z,24.1
2017-07-19T13:21:49.390Z,25.1
2017-07-19T13:22:50.809Z,24.0
2017-07-19T13:23:52.267Z,25.2
2017-07-19T13:24:53.691Z,25.2
2017-07-19T13:25:55.149Z,24.6
2017-07-19T13:26:56.572Z,25.8
2017-07-19T13:27:58.048Z,26.5
2017-07-19T13:28:59.572Z,25.5
2017-07-19T13:30:00.990Z,25.9
2017-07-19T13:31:02.410Z,25.6
2017-07-19T13:32:03.894Z,26.6
2017-07-19T13:33:05.316Z,27.0
2017-07-19T13:34:06.775Z,26.6
2017-07-19T13:35:08.193Z,27.6
2017-07-19T13:36:09.655Z,28.0
2017-07-19T13:37:11.072Z,27.9
2017-07-19T13:38:12.487Z,27.4